createdAt,value
2018-03-25T00:01:13.116Z,15.13
2018-03-25T00:03:40.640Z,15.90
2018-03-25T00:06:08.170Z,14.07
2018-03-25T00:08:36.115Z,14.57
2018-03-25T00:11:03.653Z,13.63
2018-03-25T00:13:31.171Z,16.20
2018-03-25T00:15:58.696Z,19.50
2018-03-25T00:18:26.605Z,16.23
2018-03-25T00:20:54.135Z,21.47
2018-03-25T00:23:22.050Z,17.13
2018-03-25T00:25:49.587Z,17.43
2018-03-25T00:28:17.125Z,25.40
2018-03-25T00:30:45.035Z,17.17
2018-03-25T00:33:12.564Z,26.63
2018-03-25T00:35:40.087Z,20.57
2018-03-25T00:38:08.023Z,23.33
2018-03-25T00:40:35.539Z,18.23
2018-03-25T00:43:03.108Z,16.23
2018-03-25T00:45:30.685Z,15.37
2018-03-25T00:47:58.212Z,15.53
2018-03-25T00:50:25.798Z,18.40
2018-03-25T00:52:53.347Z,13.43
2018-03-25T00:55:20.871Z,15.60
2018-03-25T00:57:48.827Z,16.83
2018-03-25T01:00:16.349Z,17.37
2018-03-25T01:02:43.891Z,17.40
2018-03-25T01:05:11.422Z,16.00
2018-03-25T01:07:39.033Z,15.50
2018-03-25T01:10:06.595Z,16.77
2018-03-25T01:12:34.123Z,17.20
2018-03-25T01:15:01.691Z,15.00
2018-03-25T01:17:29.243Z,15.77
2018-03-25T01:19:56.746Z,13.57
2018-03-25T01:22:24.364Z,24.90
2018-03-25T01:24:51.862Z,18.03
2018-03-25T01:27:19.480Z,12.70
2018-03-25T01:29:47.015Z,26.10
2018-03-25T01:32:14.526Z,17.37
2018-03-25T01:34:42.068Z,14.27
2018-03-25T01:37:09.578Z,15.90
2018-03-25T01:39:37.522Z,15.90
2018-03-25T01:42:05.033Z,19.60
2018-03-25T01:44:32.574Z,13.13
2018-03-25T01:47:00.095Z,19.10
2018-03-25T01:49:27.711Z,13.70
2018-03-25T01:51:55.227Z,13.47
2018-03-25T01:54:24.085Z,14.27
2018-03-25T01:56:51.603Z,15.30
2018-03-25T01:59:19.131Z,15.63
2018-03-25T02:01:47.049Z,13.57
2018-03-25T02:04:14.612Z,14.63
2018-03-25T02:06:42.122Z,15.97
2018-03-25T02:09:10.068Z,15.50
2018-03-25T02:11:37.591Z,18.53
2018-03-25T02:14:05.107Z,14.83
2018-03-25T02:16:33.039Z,15.90
2018-03-25T02:19:00.584Z,23.07
2018-03-25T02:21:28.167Z,10.37
2018-03-25T02:23:55.688Z,15.53
2018-03-25T02:26:23.250Z,14.67
2018-03-25T02:28:50.835Z,15.33
2018-03-25T02:31:18.368Z,16.03
2018-03-25T02:33:45.900Z,13.27
2018-03-25T02:36:13.468Z,14.13
2018-03-25T02:38:40.975Z,13.93
2018-03-25T02:41:08.504Z,16.17
2018-03-25T02:43:36.047Z,13.63
2018-03-25T02:46:03.592Z,13.13
2018-03-25T02:48:31.104Z,13.63
2018-03-25T02:50:58.641Z,12.30
2018-03-25T02:53:26.145Z,13.87
2018-03-25T02:55:54.146Z,13.03
2018-03-25T02:58:21.663Z,13.37
2018-03-25T03:00:49.622Z,11.57
2018-03-25T03:03:17.542Z,13.60
2018-03-25T03:05:45.062Z,15.67
2018-03-25T03:08:12.990Z,13.03
2018-03-25T03:10:40.502Z,20.70
2018-03-25T03:13:08.434Z,10.40
2018-03-25T03:15:35.995Z,11.43
2018-03-25T03:18:03.539Z,12.03
2018-03-25T03:20:31.178Z,14.90
2018-03-25T03:22:58.710Z,18.67
2018-03-25T03:25:26.238Z,11.73
2018-03-25T03:27:53.781Z,13.17
2018-03-25T03:30:21.288Z,12.50
2018-03-25T03:32:48.843Z,13.20
2018-03-25T03:35:16.375Z,9.27
2018-03-25T03:37:44.324Z,12.07
2018-03-25T03:40:11.937Z,13.87
2018-03-25T03:42:39.473Z,12.67
2018-03-25T03:45:07.880Z,9.13
2018-03-25T03:47:35.542Z,10.10
2018-03-25T03:50:03.071Z,9.63
2018-03-25T03:52:31.399Z,19.00
2018-03-25T03:54:58.932Z,11.77
2018-03-25T03:57:26.467Z,10.80
2018-03-25T03:59:54.377Z,11.73
2018-03-25T04:02:21.921Z,17.80
2018-03-25T04:04:49.433Z,11.03
2018-03-25T04:07:17.462Z,13.97
2018-03-25T04:09:44.995Z,13.27
2018-03-25T04:12:12.523Z,11.33
2018-03-25T04:14:40.483Z,10.57
2018-03-25T04:17:07.996Z,10.53
2018-03-25T04:19:35.682Z,11.87
2018-03-25T04:22:03.190Z,8.47
2018-03-25T04:24:30.779Z,11.03
2018-03-25T04:26:58.294Z,8.67
2018-03-25T04:29:25.819Z,9.80
2018-03-25T04:31:53.352Z,10.70
2018-03-25T04:34:20.887Z,9.40
2018-03-25T04:36:48.400Z,7.77
2018-03-25T04:39:15.940Z,10.73
2018-03-25T04:41:43.463Z,12.33
2018-03-25T04:44:11.010Z,16.50
2018-03-25T04:46:38.530Z,11.43
2018-03-25T04:49:06.066Z,11.93
2018-03-25T04:51:33.578Z,9.43
2018-03-25T04:54:01.512Z,8.87
2018-03-25T04:56:29.029Z,8.97
2018-03-25T04:58:56.556Z,9.13
2018-03-25T05:01:24.459Z,8.57
2018-03-25T05:03:51.975Z,9.77
2018-03-25T05:06:19.875Z,7.47
2018-03-25T05:08:47.399Z,10.83
2018-03-25T05:11:15.332Z,9.87
2018-03-25T05:13:42.942Z,10.10
2018-03-25T05:16:10.506Z,9.17
2018-03-25T05:18:38.016Z,8.93
2018-03-25T05:21:05.548Z,9.67
2018-03-25T05:23:33.067Z,7.77
2018-03-25T05:26:01.437Z,12.20
2018-03-25T05:28:29.350Z,9.47
2018-03-25T05:30:56.894Z,12.03
2018-03-25T05:33:24.430Z,8.10
2018-03-25T05:35:51.958Z,10.13
2018-03-25T05:38:19.495Z,6.87
2018-03-25T05:40:47.032Z,11.37
2018-03-25T05:43:14.550Z,5.47
2018-03-25T05:45:42.519Z,6.53
2018-03-25T05:48:10.426Z,11.77
2018-03-25T05:50:37.957Z,8.43
2018-03-25T05:53:05.492Z,6.37
2018-03-25T05:55:33.414Z,7.10
2018-03-25T05:58:00.958Z,8.53
2018-03-25T06:00:28.489Z,6.77
2018-03-25T06:02:56.014Z,8.90
2018-03-25T06:05:23.538Z,9.73
2018-03-25T06:07:51.214Z,10.43
2018-03-25T06:10:18.735Z,7.67
2018-03-25T06:12:46.291Z,7.47
2018-03-25T06:15:13.820Z,8.23
2018-03-25T06:17:41.349Z,9.83
2018-03-25T06:20:08.855Z,8.10
2018-03-25T06:22:36.773Z,7.37
2018-03-25T06:25:04.284Z,6.50
2018-03-25T06:27:31.822Z,6.27
2018-03-25T06:29:59.338Z,7.10
2018-03-25T06:32:26.836Z,6.23
2018-03-25T06:34:54.362Z,5.73
2018-03-25T06:37:21.877Z,7.83
2018-03-25T06:39:49.408Z,5.40
2018-03-25T06:42:17.031Z,4.93
2018-03-25T06:44:44.597Z,4.23
2018-03-25T06:47:12.091Z,4.13
2018-03-25T06:49:40.033Z,4.87
2018-03-25T06:52:07.563Z,3.83
2018-03-25T06:54:35.087Z,4.70
2018-03-25T06:57:02.997Z,3.20
2018-03-25T06:59:30.541Z,4.75
2018-03-25T07:01:58.087Z,4.07
2018-03-25T07:04:25.643Z,3.92
2018-03-25T07:06:53.205Z,3.58
2018-03-25T07:09:20.744Z,5.12
2018-03-25T07:11:48.656Z,4.15
2018-03-25T07:14:16.197Z,4.97
2018-03-25T07:16:43.713Z,4.93
2018-03-25T07:19:11.643Z,4.43
2018-03-25T07:21:39.152Z,5.30
2018-03-25T07:24:07.088Z,4.72
2018-03-25T07:26:34.729Z,6.12
2018-03-25T07:29:02.291Z,5.82
2018-03-25T07:31:29.813Z,4.57
2018-03-25T07:33:57.327Z,3.55
2018-03-25T07:36:24.893Z,3.35
2018-03-25T07:38:52.408Z,5.00
2018-03-25T07:41:19.945Z,5.68
2018-03-25T07:43:47.460Z,3.97
2018-03-25T07:46:14.985Z,4.15
2018-03-25T07:48:42.505Z,5.00
2018-03-25T07:51:10.433Z,3.35
2018-03-25T07:53:37.945Z,3.95
2018-03-25T07:56:05.491Z,5.05
2018-03-25T07:58:33.103Z,4.40
2018-03-25T08:01:00.646Z,3.03
2018-03-25T08:03:28.171Z,3.47
2018-03-25T08:05:55.702Z,7.00
2018-03-25T08:08:23.212Z,6.68
2018-03-25T08:10:50.744Z,7.15
2018-03-25T08:13:18.259Z,6.62
2018-03-25T08:15:45.815Z,5.00
2018-03-25T08:18:13.311Z,4.90
2018-03-25T08:20:41.243Z,5.75
2018-03-25T08:23:08.766Z,7.72
2018-03-25T08:25:36.285Z,6.05
2018-03-25T08:28:04.245Z,4.78
2018-03-25T08:30:32.169Z,4.40
2018-03-25T08:32:59.718Z,4.95
2018-03-25T08:35:27.215Z,7.28
2018-03-25T08:37:54.794Z,6.12
2018-03-25T08:40:22.711Z,4.62
2018-03-25T08:42:50.244Z,5.53
2018-03-25T08:45:25.031Z,8.13
2018-03-25T08:47:52.559Z,4.95
2018-03-25T08:50:20.099Z,5.80
2018-03-25T08:52:47.668Z,6.85
2018-03-25T08:55:15.239Z,5.95
2018-03-25T08:57:42.860Z,4.65
2018-03-25T09:00:10.410Z,7.82
2018-03-25T09:02:38.326Z,5.75
2018-03-25T09:05:05.847Z,9.60
2018-03-25T09:07:33.381Z,7.35
2018-03-25T09:10:01.296Z,8.25
2018-03-25T09:12:28.843Z,7.70
2018-03-25T09:14:56.395Z,8.18
2018-03-25T09:17:24.170Z,6.85
2018-03-25T09:19:51.728Z,6.97
2018-03-25T09:22:19.243Z,9.38
2018-03-25T09:24:46.776Z,7.85
2018-03-25T09:27:14.424Z,8.05
2018-03-25T09:29:42.168Z,8.15
2018-03-25T09:32:09.699Z,8.88
2018-03-25T09:34:37.245Z,10.32
2018-03-25T09:37:05.156Z,8.93
2018-03-25T09:39:32.683Z,9.15
2018-03-25T09:42:00.677Z,8.70
2018-03-25T09:44:28.247Z,10.57
2018-03-25T09:46:55.771Z,11.12
2018-03-25T09:49:23.704Z,10.30
2018-03-25T09:51:51.223Z,9.20
2018-03-25T09:54:18.755Z,8.43
2018-03-25T09:56:46.279Z,9.88
2018-03-25T09:59:13.839Z,9.82
2018-03-25T10:01:47.058Z,8.32
2018-03-25T10:04:15.004Z,7.93
2018-03-25T10:06:42.617Z,7.72
2018-03-25T10:09:10.169Z,10.38
2018-03-25T10:11:37.712Z,8.70
2018-03-25T10:14:05.280Z,7.82
2018-03-25T10:16:32.839Z,9.35
2018-03-25T10:19:00.363Z,8.20
2018-03-25T10:21:28.375Z,10.25
2018-03-25T10:23:55.892Z,7.70
2018-03-25T10:26:23.835Z,8.75
2018-03-25T10:28:51.356Z,8.15
2018-03-25T10:31:18.920Z,9.60
2018-03-25T10:33:46.478Z,9.32
2018-03-25T10:36:14.032Z,7.80
2018-03-25T10:38:41.558Z,9.00
2018-03-25T10:41:09.501Z,10.90
2018-03-25T10:43:37.023Z,11.02
2018-03-25T10:46:04.623Z,11.00
2018-03-25T10:48:32.242Z,9.82
2018-03-25T10:50:59.769Z,10.38
2018-03-25T10:53:27.707Z,8.95
2018-03-25T10:55:55.262Z,10.45
2018-03-25T10:58:22.795Z,12.35
2018-03-25T11:00:50.351Z,9.90
2018-03-25T11:03:17.901Z,9.63
2018-03-25T11:05:45.465Z,10.57
2018-03-25T11:08:12.998Z,10.38
2018-03-25T11:10:40.628Z,10.05
2018-03-25T11:13:08.609Z,11.63
2018-03-25T11:15:36.213Z,8.75
2018-03-25T11:18:03.794Z,9.68
2018-03-25T11:20:31.311Z,12.10
2018-03-25T11:22:58.860Z,11.23
2018-03-25T11:25:26.395Z,11.05
2018-03-25T11:27:53.916Z,14.90
2018-03-25T11:30:21.452Z,11.82
2018-03-25T11:32:48.985Z,10.55
2018-03-25T11:35:16.914Z,10.63
2018-03-25T11:37:44.439Z,10.30
2018-03-25T11:40:12.032Z,10.90
2018-03-25T11:42:39.540Z,12.82
2018-03-25T11:45:07.080Z,11.68
2018-03-25T11:47:35.016Z,10.55
2018-03-25T11:50:02.565Z,13.32
2018-03-25T11:52:30.131Z,13.13
2018-03-25T11:54:57.730Z,13.65
2018-03-25T11:57:25.289Z,14.13
2018-03-25T11:59:53.221Z,12.95
2018-03-25T12:02:20.847Z,11.67
2018-03-25T12:04:48.386Z,12.48
2018-03-25T12:07:15.902Z,12.65
2018-03-25T12:09:43.520Z,11.13
2018-03-25T12:12:11.027Z,10.40
2018-03-25T12:14:38.538Z,8.38
2018-03-25T12:17:06.066Z,8.57
2018-03-25T12:19:34.146Z,13.38
2018-03-25T12:22:02.104Z,11.83
2018-03-25T12:24:29.639Z,8.13
2018-03-25T12:26:57.195Z,6.93
2018-03-25T12:29:24.727Z,10.37
2018-03-25T12:31:52.480Z,8.65
2018-03-25T12:34:20.011Z,11.77
2018-03-25T12:36:47.556Z,9.98
2018-03-25T12:39:15.530Z,10.80
2018-03-25T12:41:43.299Z,9.45
2018-03-25T12:44:10.835Z,11.27
2018-03-25T12:46:38.759Z,13.87
2018-03-25T12:49:06.263Z,10.50
2018-03-25T12:51:34.190Z,9.60
2018-03-25T12:54:01.691Z,8.93
2018-03-25T12:56:29.244Z,8.30
2018-03-25T12:58:57.143Z,8.63
2018-03-25T13:01:24.702Z,11.20
2018-03-25T13:03:52.234Z,8.77
2018-03-25T13:06:20.245Z,7.30
2018-03-25T13:08:47.763Z,8.55
2018-03-25T13:11:15.699Z,10.75
2018-03-25T13:13:43.213Z,9.60
2018-03-25T13:16:10.759Z,6.47
2018-03-25T13:18:38.346Z,8.20
2018-03-25T13:21:05.888Z,7.32
2018-03-25T13:23:33.424Z,7.03
2018-03-25T13:26:01.353Z,7.28
2018-03-25T13:28:29.399Z,7.80
2018-03-25T13:30:56.957Z,6.00
2018-03-25T13:33:24.515Z,7.87
2018-03-25T13:35:52.047Z,8.80
2018-03-25T13:38:19.606Z,8.50
2018-03-25T13:40:47.131Z,6.12
2018-03-25T13:43:14.667Z,7.83
2018-03-25T13:45:42.185Z,6.80
2018-03-25T13:48:09.734Z,10.15
2018-03-25T13:50:37.656Z,6.87
2018-03-25T13:53:05.195Z,6.65
2018-03-25T13:55:33.100Z,6.95
2018-03-25T13:58:00.714Z,8.85
2018-03-25T14:00:28.216Z,8.05
2018-03-25T14:02:55.747Z,8.05
2018-03-25T14:05:23.282Z,6.28
2018-03-25T14:07:50.801Z,7.62
2018-03-25T14:10:18.358Z,9.50
2018-03-25T14:12:46.648Z,8.00
2018-03-25T14:15:14.618Z,6.70
2018-03-25T14:17:42.103Z,9.35
2018-03-25T14:20:09.651Z,10.73
2018-03-25T14:22:37.164Z,9.50
2018-03-25T14:25:05.115Z,9.82
2018-03-25T14:27:32.633Z,9.07
2018-03-25T14:30:00.176Z,9.13
2018-03-25T14:32:27.700Z,8.05
2018-03-25T14:34:55.322Z,8.63
2018-03-25T14:37:22.846Z,9.10
2018-03-25T14:39:50.764Z,6.57
2018-03-25T14:42:18.279Z,6.55
2018-03-25T14:44:46.227Z,6.60
2018-03-25T14:47:14.147Z,7.62
2018-03-25T14:49:41.671Z,7.68
2018-03-25T14:52:09.611Z,5.95
2018-03-25T14:54:37.125Z,7.65
2018-03-25T14:57:04.897Z,6.55
2018-03-25T14:59:32.453Z,6.18
2018-03-25T15:02:00.024Z,7.13
2018-03-25T15:04:27.615Z,6.80
2018-03-25T15:06:55.140Z,6.43
2018-03-25T15:09:22.663Z,5.97
2018-03-25T15:11:50.189Z,5.87
2018-03-25T15:14:17.802Z,5.95
2018-03-25T15:16:45.339Z,6.68
2018-03-25T15:19:12.871Z,7.25
2018-03-25T15:21:40.803Z,8.25
2018-03-25T15:24:08.441Z,8.45
2018-03-25T15:26:36.010Z,9.35
2018-03-25T15:29:03.553Z,5.47
2018-03-25T15:31:31.159Z,7.93
2018-03-25T15:33:58.697Z,9.32
2018-03-25T15:36:26.216Z,9.15
2018-03-25T15:38:53.761Z,10.95
2018-03-25T15:41:21.300Z,7.82
2018-03-25T15:43:48.911Z,8.10
2018-03-25T15:46:16.436Z,8.40
2018-03-25T15:48:44.363Z,11.23
2018-03-25T15:51:11.894Z,10.57
2018-03-25T15:53:39.427Z,9.20
2018-03-25T15:56:07.322Z,8.60
2018-03-25T15:58:35.087Z,10.43
2018-03-25T16:01:02.592Z,7.50
2018-03-25T16:03:30.148Z,8.40
2018-03-25T16:05:57.655Z,9.43
2018-03-25T16:08:42.520Z,8.17
2018-03-25T16:11:10.045Z,8.43
2018-03-25T16:13:38.046Z,8.17
2018-03-25T16:16:05.626Z,9.00
2018-03-25T16:18:33.152Z,8.27
2018-03-25T16:21:00.700Z,9.53
2018-03-25T16:23:28.227Z,10.13
2018-03-25T16:25:55.780Z,7.73
2018-03-25T16:28:23.292Z,10.00
2018-03-25T16:30:50.864Z,10.20
2018-03-25T16:33:18.470Z,9.50
2018-03-25T16:35:46.024Z,7.97
2018-03-25T16:38:13.531Z,9.23
2018-03-25T16:40:41.070Z,8.93
2018-03-25T16:43:08.619Z,12.37
2018-03-25T16:45:36.616Z,11.80
2018-03-25T16:48:04.130Z,11.77
2018-03-25T16:50:31.668Z,11.03
2018-03-25T16:52:59.178Z,11.13
2018-03-25T16:55:26.707Z,12.17
2018-03-25T16:57:54.719Z,12.43
2018-03-25T17:00:22.247Z,12.23
2018-03-25T17:02:50.147Z,12.83
2018-03-25T17:05:17.675Z,13.73
2018-03-25T17:07:45.691Z,15.27
2018-03-25T17:10:13.251Z,14.23
2018-03-25T17:12:40.771Z,12.33
2018-03-25T17:15:08.287Z,14.17
2018-03-25T17:17:35.827Z,14.47
2018-03-25T17:20:03.364Z,14.70
2018-03-25T17:22:30.915Z,13.20
2018-03-25T17:24:58.424Z,13.50
2018-03-25T17:27:25.963Z,16.40
2018-03-25T17:29:53.471Z,12.87
2018-03-25T17:32:21.059Z,14.93
2018-03-25T17:34:48.583Z,13.80
2018-03-25T17:37:16.599Z,12.13
2018-03-25T17:39:44.114Z,20.67
2018-03-25T17:42:12.060Z,20.30
2018-03-25T17:44:39.560Z,14.27
2018-03-25T17:47:07.230Z,15.20
2018-03-25T17:49:34.761Z,14.07
2018-03-25T17:52:02.297Z,13.17
2018-03-25T17:54:30.196Z,14.00
2018-03-25T17:56:57.727Z,14.73
2018-03-25T17:59:25.630Z,13.67
2018-03-25T18:01:53.160Z,20.27
2018-03-25T18:04:21.084Z,9.47
2018-03-25T18:06:48.603Z,16.33
2018-03-25T18:09:16.146Z,12.27
2018-03-25T18:11:44.066Z,10.17
2018-03-25T18:14:11.639Z,17.53
2018-03-25T18:16:39.199Z,14.93
2018-03-25T18:19:06.745Z,12.83
2018-03-25T18:21:34.275Z,12.03
2018-03-25T18:24:01.813Z,15.20
2018-03-25T18:26:29.402Z,13.70
2018-03-25T18:28:56.933Z,15.27
2018-03-25T18:38:16.741Z,16.50
2018-03-25T18:40:44.682Z,17.27
2018-03-25T18:43:12.214Z,15.63
2018-03-25T18:45:39.735Z,16.07
2018-03-25T18:48:07.250Z,23.27
2018-03-25T18:50:34.787Z,16.03
2018-03-25T18:53:02.305Z,20.57
2018-03-25T18:55:30.240Z,25.40
2018-03-25T18:57:57.779Z,19.50
2018-03-25T19:00:25.325Z,23.43
2018-03-25T19:02:52.852Z,17.93
2018-03-25T19:05:20.392Z,18.50
2018-03-25T19:07:48.684Z,30.07
2018-03-25T19:10:16.282Z,22.83
2018-03-25T19:12:43.801Z,30.17
2018-03-25T19:15:13.140Z,21.93
2018-03-25T19:17:41.194Z,30.20
2018-03-25T19:20:08.732Z,21.73
2018-03-25T19:22:36.264Z,28.63
2018-03-25T19:25:04.191Z,18.60
2018-03-25T19:27:31.732Z,27.33
2018-03-25T19:29:59.317Z,21.07
2018-03-25T19:32:26.849Z,28.90
2018-03-25T19:34:54.360Z,20.37
2018-03-25T19:37:21.892Z,26.63
2018-03-25T19:39:49.419Z,23.37
2018-03-25T19:42:17.027Z,26.90
2018-03-25T19:44:44.545Z,20.27
2018-03-25T19:47:12.084Z,25.83
2018-03-25T19:49:39.593Z,19.83
2018-03-25T19:52:07.136Z,21.50
2018-03-25T19:54:34.643Z,17.23
2018-03-25T19:57:02.604Z,28.27
2018-03-25T19:59:30.522Z,19.43
2018-03-25T20:01:58.060Z,20.17
2018-03-25T20:04:25.987Z,15.60
2018-03-25T20:06:53.531Z,18.93
2018-03-25T20:09:21.058Z,17.27
2018-03-25T20:11:48.655Z,25.67
2018-03-25T20:14:16.556Z,17.20
2018-03-25T20:16:44.084Z,26.50
2018-03-25T20:19:11.614Z,20.73
2018-03-25T20:21:39.249Z,15.90
2018-03-25T20:24:06.771Z,20.33
2018-03-25T20:26:34.703Z,33.20
2018-03-25T20:29:02.238Z,20.87
2018-03-25T20:31:29.767Z,24.23
2018-03-25T20:33:57.684Z,15.23
2018-03-25T20:36:25.225Z,15.10
2018-03-25T20:38:52.756Z,16.47
2018-03-25T20:41:20.281Z,15.60
2018-03-25T20:43:47.833Z,17.30
2018-03-25T20:46:15.457Z,12.17
2018-03-25T20:48:42.984Z,15.53
2018-03-25T20:51:10.530Z,12.23
2018-03-25T20:53:38.471Z,13.67
2018-03-25T20:56:06.104Z,12.93
2018-03-25T20:58:33.667Z,14.03
2018-03-25T21:01:01.183Z,12.83
2018-03-25T21:03:29.111Z,9.90
2018-03-25T21:05:56.623Z,12.00
2018-03-25T21:08:24.147Z,11.97
2018-03-25T21:10:51.645Z,13.27
2018-03-25T21:13:19.640Z,10.27
2018-03-25T21:15:47.181Z,7.40
2018-03-25T21:18:14.716Z,10.47
2018-03-25T21:20:42.629Z,9.63
2018-03-25T21:23:10.154Z,8.27
2018-03-25T21:25:37.688Z,11.23
2018-03-25T21:28:05.596Z,7.07
2018-03-25T21:30:33.126Z,10.17
2018-03-25T21:33:00.632Z,10.00
2018-03-25T21:35:28.194Z,11.00
2018-03-25T21:37:55.709Z,7.93
2018-03-25T21:40:23.239Z,8.00
2018-03-25T21:42:51.148Z,12.37
